createdAt,value
2023-03-24T00:02:11.151Z,97156.09
2023-03-24T00:05:36.552Z,97147.34
2023-03-24T00:08:58.364Z,97138.13
2023-03-24T00:12:20.214Z,97138.13
2023-03-24T00:15:42.347Z,97138.50
2023-03-24T00:19:14.807Z,97136.16
2023-03-24T00:22:42.119Z,97142.13
2023-03-24T00:26:15.176Z,97123.81
2023-03-24T00:29:38.133Z,97127.78
2023-03-24T00:33:01.838Z,97113.44
2023-03-24T00:36:28.870Z,97121.16
2023-03-24T00:39:53.122Z,97130.72
2023-03-24T00:43:15.195Z,97127.03
2023-03-24T00:46:38.935Z,97126.22
2023-03-24T00:50:01.914Z,97109.13
2023-03-24T00:53:29.032Z,97087.03
2023-03-24T00:56:55.697Z,97088.50
2023-03-24T01:00:26.129Z,97070.13
2023-03-24T01:03:50.539Z,97074.34
2023-03-24T01:07:18.167Z,97069.94
2023-03-24T01:10:42.650Z,97067.75
2023-03-24T01:14:08.560Z,97064.19
2023-03-24T01:17:30.849Z,97072.06
2023-03-24T01:20:54.165Z,97073.91
2023-03-24T01:24:25.747Z,97071.22
2023-03-24T01:27:49.586Z,97070.41
2023-03-24T01:31:12.262Z,97067.38
2023-03-24T01:34:34.935Z,97061.03
2023-03-24T01:37:58.133Z,97056.16
2023-03-24T01:41:23.032Z,97050.28
2023-03-24T01:45:01.935Z,97046.16
2023-03-24T01:48:42.998Z,97052.56
2023-03-24T01:52:13.986Z,97045.84
2023-03-24T01:55:46.799Z,97050.28
2023-03-24T01:59:24.918Z,97046.16
2023-03-24T02:03:18.512Z,97049.72
2023-03-24T02:06:53.947Z,97053.38
2023-03-24T02:10:21.907Z,97049.16
2023-03-24T02:13:44.773Z,97051.66
2023-03-24T02:17:54.543Z,97056.22
2023-03-24T02:22:08.067Z,97050.06
2023-03-24T02:26:08.854Z,97059.44
2023-03-24T02:29:59.852Z,97059.13
2023-03-24T02:34:28.591Z,97048.81
2023-03-24T02:38:53.529Z,97060.59
2023-03-24T02:42:26.405Z,97053.78
2023-03-24T02:46:23.150Z,97042.75
2023-03-24T02:50:18.407Z,97061.44
2023-03-24T02:54:16.472Z,97063.72
2023-03-24T02:57:54.843Z,97060.22
2023-03-24T03:01:54.725Z,97052.22
2023-03-24T03:05:42.047Z,97058.00
2023-03-24T03:09:12.074Z,97056.34
2023-03-24T03:12:38.593Z,97051.25
2023-03-24T03:16:10.205Z,97057.31
2023-03-24T03:19:53.694Z,97048.28
2023-03-24T03:23:41.058Z,97047.09
2023-03-24T03:27:19.839Z,97050.34
2023-03-24T03:30:49.631Z,97047.22
2023-03-24T03:34:43.999Z,97048.50
2023-03-24T03:38:29.335Z,97037.72
2023-03-24T03:41:53.990Z,97043.25
2023-03-24T03:45:16.182Z,97042.13
2023-03-24T03:48:40.507Z,97040.47
2023-03-24T03:52:03.154Z,97029.66
2023-03-24T03:55:25.473Z,97045.81
2023-03-24T03:58:49.094Z,97040.47
2023-03-24T04:02:29.310Z,97035.53
2023-03-24T04:06:21.332Z,97051.53
2023-03-24T04:10:15.333Z,97062.47
2023-03-24T04:14:02.542Z,97063.88
2023-03-24T04:18:04.533Z,97053.19
2023-03-24T04:22:24.319Z,97071.97
2023-03-24T04:26:54.579Z,97066.44
2023-03-24T04:30:50.387Z,97064.47
2023-03-24T04:34:50.728Z,97080.22
2023-03-24T04:38:36.256Z,97087.69
2023-03-24T04:42:24.120Z,97087.69
2023-03-24T04:45:58.141Z,97100.47
2023-03-24T04:49:28.804Z,97089.78
2023-03-24T04:53:09.672Z,97090.38
2023-03-24T04:56:47.667Z,97080.41
2023-03-24T05:00:46.602Z,97085.41
2023-03-24T05:04:23.236Z,97094.59
2023-03-24T05:07:45.052Z,97085.75
2023-03-24T05:11:09.916Z,97085.31
2023-03-24T05:14:35.332Z,97075.91
2023-03-24T05:18:01.215Z,97071.38
2023-03-24T05:21:33.011Z,97077.47
2023-03-24T05:24:57.527Z,97081.91
2023-03-24T05:28:19.484Z,97078.38
2023-03-24T05:31:45.412Z,97081.34
2023-03-24T05:35:15.953Z,97072.94
2023-03-24T05:38:44.566Z,97081.63
2023-03-24T05:42:11.493Z,97090.91
2023-03-24T05:45:33.657Z,97096.31
2023-03-24T05:48:57.473Z,97086.56
2023-03-24T05:52:34.735Z,97089.06
2023-03-24T05:56:19.863Z,97091.38
2023-03-24T06:00:00.353Z,97095.50
2023-03-24T06:03:53.442Z,97082.06
2023-03-24T06:07:16.392Z,97088.81
2023-03-24T06:10:44.105Z,97085.00
2023-03-24T06:14:09.054Z,97088.44
2023-03-24T06:17:46.642Z,97095.09
2023-03-24T06:21:32.440Z,97103.06
2023-03-24T06:24:58.966Z,97102.31
2023-03-24T06:28:22.516Z,97103.97
2023-03-24T06:31:48.930Z,97102.53
2023-03-24T06:35:11.527Z,97106.50
2023-03-24T06:38:44.592Z,97112.22
2023-03-24T06:42:11.115Z,97107.88
2023-03-24T06:45:40.078Z,97119.84
2023-03-24T06:49:05.206Z,97118.97
2023-03-24T06:52:27.837Z,97112.22
2023-03-24T06:55:51.626Z,97118.94
2023-03-24T06:59:23.679Z,97129.38
2023-03-24T07:03:03.371Z,97138.78
2023-03-24T07:06:27.325Z,97142.28
2023-03-24T07:09:56.507Z,97149.09
2023-03-24T07:13:24.200Z,97157.56
2023-03-24T07:17:02.316Z,97157.56
2023-03-24T07:20:36.499Z,97147.81
2023-03-24T07:24:12.256Z,97154.97
2023-03-24T07:27:48.771Z,97133.63
2023-03-24T07:31:12.269Z,97140.09
2023-03-24T07:34:36.935Z,97156.63
2023-03-24T07:38:05.784Z,97165.91
2023-03-24T07:41:29.226Z,97207.06
2023-03-24T07:44:55.018Z,97205.00
2023-03-24T07:48:21.215Z,97216.78
2023-03-24T07:51:46.472Z,97238.81
2023-03-24T07:55:17.575Z,97244.91
2023-03-24T07:58:52.385Z,97250.34
2023-03-24T08:02:22.263Z,97249.88
2023-03-24T08:05:55.402Z,97250.41
2023-03-24T08:09:27.781Z,97263.84
2023-03-24T08:12:51.995Z,97269.53
2023-03-24T08:16:15.702Z,97279.88
2023-03-24T08:19:52.022Z,97275.06
2023-03-24T08:23:20.942Z,97273.19
2023-03-24T08:26:48.525Z,97275.22
2023-03-24T08:30:17.083Z,97284.78
2023-03-24T08:33:41.849Z,97280.41
2023-03-24T08:37:08.842Z,97281.19
2023-03-24T08:40:31.704Z,97281.31
2023-03-24T08:43:53.561Z,97292.59
2023-03-24T08:47:15.533Z,97299.63
2023-03-24T08:50:41.778Z,97310.44
2023-03-24T08:54:04.223Z,97312.72
2023-03-24T08:57:28.495Z,97316.13
2023-03-24T09:00:52.786Z,97318.53
2023-03-24T09:04:14.777Z,97323.59
2023-03-24T09:07:43.524Z,97319.69
2023-03-24T09:11:07.816Z,97317.44
2023-03-24T09:14:29.699Z,97324.66
2023-03-24T09:17:53.693Z,97319.91
2023-03-24T09:21:16.948Z,97323.41
2023-03-24T09:24:39.910Z,97325.41
2023-03-24T09:28:04.386Z,97325.63
2023-03-24T09:31:26.431Z,97321.63
2023-03-24T09:34:49.319Z,97310.09
2023-03-24T09:38:12.143Z,97313.13
2023-03-24T09:41:35.164Z,97316.41
2023-03-24T09:45:21.476Z,97330.81
2023-03-24T09:48:57.500Z,97334.00
2023-03-24T09:52:39.466Z,97336.97
2023-03-24T09:56:17.708Z,97340.09
2023-03-24T09:59:41.893Z,97347.97
2023-03-24T10:03:22.882Z,97344.59
2023-03-24T10:06:48.342Z,97354.25
2023-03-24T10:10:37.965Z,97362.72
2023-03-24T10:14:13.900Z,97374.25
2023-03-24T10:18:38.055Z,97372.06
2023-03-24T10:22:25.802Z,97370.63
2023-03-24T10:26:21.691Z,97374.00
2023-03-24T10:29:46.524Z,97374.41
2023-03-24T10:33:12.259Z,97381.28
2023-03-24T10:36:35.891Z,97381.41
2023-03-24T10:40:00.597Z,97384.69
2023-03-24T10:43:26.165Z,97368.38
2023-03-24T10:46:55.418Z,97374.81
2023-03-24T10:50:25.459Z,97372.72
2023-03-24T10:53:49.825Z,97360.31
2023-03-24T10:57:18.915Z,97375.94
2023-03-24T11:00:45.264Z,97368.41
2023-03-24T11:04:13.725Z,97377.59
2023-03-24T11:07:42.229Z,97380.41
2023-03-24T11:11:34.865Z,97368.72
2023-03-24T11:15:22.453Z,97370.47
2023-03-24T11:19:04.148Z,97378.31
2023-03-24T11:22:27.164Z,97379.00
2023-03-24T11:26:18.764Z,97378.19
2023-03-24T11:29:41.701Z,97385.63
2023-03-24T11:33:04.899Z,97379.66
2023-03-24T11:36:44.038Z,97383.78
2023-03-24T11:40:13.703Z,97381.72
2023-03-24T11:43:35.735Z,97387.41
2023-03-24T11:47:23.898Z,97396.25
2023-03-24T11:50:47.673Z,97396.06
2023-03-24T11:54:18.559Z,97394.91
2023-03-24T11:58:01.816Z,97401.97
2023-03-24T12:01:31.787Z,97406.50
2023-03-24T12:05:36.701Z,97407.22
2023-03-24T12:09:09.248Z,97405.06
2023-03-24T12:13:18.961Z,97401.13
2023-03-24T12:17:17.752Z,97401.97
2023-03-24T12:21:21.494Z,97408.81
2023-03-24T12:25:27.736Z,97392.06
2023-03-24T12:29:02.952Z,97398.06
2023-03-24T12:33:08.490Z,97389.34
2023-03-24T12:36:53.855Z,97389.97
2023-03-24T12:40:40.578Z,97401.75
2023-03-24T12:44:30.372Z,97404.25
2023-03-24T12:48:12.495Z,97403.19
2023-03-24T12:52:00.468Z,97396.16
2023-03-24T12:55:44.685Z,97385.41
2023-03-24T12:59:32.053Z,97396.38
2023-03-24T13:03:11.661Z,97391.44
2023-03-24T13:07:01.166Z,97395.97
2023-03-24T13:10:33.826Z,97391.22
2023-03-24T13:13:59.785Z,97393.91
2023-03-24T13:17:30.830Z,97384.22
2023-03-24T13:20:59.695Z,97373.00
2023-03-24T13:24:25.614Z,97381.97
2023-03-24T13:27:57.004Z,97387.78
2023-03-24T13:31:23.906Z,97408.19
2023-03-24T13:35:37.443Z,97436.06
2023-03-24T13:39:12.382Z,97422.16
2023-03-24T13:42:45.409Z,97420.34
2023-03-24T13:46:13.676Z,97408.28
2023-03-24T13:49:36.386Z,97391.56
2023-03-24T13:53:15.376Z,97389.47
2023-03-24T13:57:01.426Z,97382.66
2023-03-24T14:00:29.546Z,97372.34
2023-03-24T14:04:19.320Z,97362.88
2023-03-24T14:07:41.089Z,97364.38
2023-03-24T14:11:03.090Z,97357.03
2023-03-24T14:14:29.656Z,97352.53
2023-03-24T14:17:56.560Z,97346.09
2023-03-24T14:21:31.493Z,97363.91
2023-03-24T14:25:14.234Z,97351.09
2023-03-24T14:28:46.530Z,97339.16
2023-03-24T14:32:20.545Z,97349.88
2023-03-24T14:35:48.938Z,97337.03
2023-03-24T14:39:39.077Z,97345.34
2023-03-24T14:43:28.517Z,97340.97
2023-03-24T14:46:51.808Z,97348.25
2023-03-24T14:50:23.649Z,97345.13
2023-03-24T14:53:58.558Z,97341.97
2023-03-24T14:57:45.234Z,97348.69
2023-03-24T15:01:09.210Z,97346.09
2023-03-24T15:04:33.578Z,97339.09
2023-03-24T15:08:13.628Z,97345.72
2023-03-24T15:11:41.273Z,97332.44
2023-03-24T15:15:04.574Z,97329.78
2023-03-24T15:18:27.819Z,97321.16
2023-03-24T15:22:02.810Z,97331.88
2023-03-24T15:25:28.134Z,97337.06
2023-03-24T15:29:05.033Z,97335.94
2023-03-24T15:32:31.942Z,97336.63
2023-03-24T15:36:00.820Z,97335.94
2023-03-24T15:39:37.874Z,97334.75
2023-03-24T15:43:04.033Z,97324.59
2023-03-24T15:46:31.239Z,97338.56
2023-03-24T15:49:58.205Z,97335.53
2023-03-24T15:53:20.601Z,97342.66
2023-03-24T15:56:42.457Z,97331.03
2023-03-24T16:00:15.975Z,97340.28
2023-03-24T16:03:37.806Z,97330.03
2023-03-24T16:07:00.643Z,97322.22
2023-03-24T16:10:32.362Z,97322.75
2023-03-24T16:13:58.892Z,97311.53
2023-03-24T16:17:28.940Z,97314.06
2023-03-24T16:20:51.914Z,97302.47
2023-03-24T16:24:16.119Z,97321.41
2023-03-24T16:27:39.304Z,97320.25
2023-03-24T16:31:06.623Z,97318.78
2023-03-24T16:34:29.573Z,97326.03
2023-03-24T16:37:52.575Z,97345.63
2023-03-24T16:41:16.524Z,97337.78
2023-03-24T16:44:39.303Z,97355.91
2023-03-24T16:48:01.832Z,97352.50
2023-03-24T16:51:27.045Z,97353.47
2023-03-24T16:54:50.476Z,97361.78
2023-03-24T16:58:19.134Z,97362.84
2023-03-24T17:01:45.765Z,97372.84
2023-03-24T17:05:27.549Z,97389.28
2023-03-24T17:08:49.571Z,97396.13
2023-03-24T17:12:11.462Z,97387.97
2023-03-24T17:15:33.557Z,97390.91
2023-03-24T17:18:56.012Z,97381.81
2023-03-24T17:22:19.964Z,97387.31
2023-03-24T17:25:45.827Z,97392.94
2023-03-24T17:29:13.571Z,97373.78
2023-03-24T17:32:35.497Z,97385.66
2023-03-24T17:35:57.463Z,97399.94
2023-03-24T17:39:21.478Z,97395.91
2023-03-24T17:42:46.676Z,97381.31
2023-03-24T17:46:13.276Z,97375.63
2023-03-24T17:49:35.374Z,97374.22
2023-03-24T17:52:57.228Z,97385.00
2023-03-24T17:56:19.242Z,97391.22
2023-03-24T17:59:41.225Z,97392.09
2023-03-24T18:03:05.092Z,97389.25
2023-03-24T18:06:27.532Z,97381.31
2023-03-24T18:09:49.605Z,97379.81
2023-03-24T18:13:12.389Z,97385.38
2023-03-24T18:16:39.430Z,97377.75
2023-03-24T18:20:09.817Z,97382.47
2023-03-24T18:23:31.860Z,97398.09
2023-03-24T18:26:53.661Z,97414.06
2023-03-24T18:30:16.883Z,97399.69
2023-03-24T18:33:39.259Z,97395.13
2023-03-24T18:37:01.542Z,97403.31
2023-03-24T18:40:24.452Z,97403.31
2023-03-24T18:43:47.617Z,97393.19
2023-03-24T18:47:15.746Z,97397.00
2023-03-24T18:50:40.483Z,97396.59
2023-03-24T18:54:02.348Z,97409.84
2023-03-24T18:57:26.176Z,97415.13
2023-03-24T19:00:53.393Z,97411.53
2023-03-24T19:04:17.286Z,97413.88
2023-03-24T19:07:39.161Z,97421.31
2023-03-24T19:11:01.475Z,97424.47
2023-03-24T19:14:25.169Z,97429.81
2023-03-24T19:17:47.087Z,97419.16
2023-03-24T19:21:10.039Z,97490.38
2023-03-24T19:24:31.855Z,97495.53
2023-03-24T19:27:53.637Z,97484.56
2023-03-24T19:31:19.760Z,97484.19
2023-03-24T19:34:41.767Z,97494.75
2023-03-24T19:38:05.399Z,97497.38
2023-03-24T19:41:27.509Z,97533.53
2023-03-24T19:44:49.495Z,97534.78
2023-03-24T19:48:12.309Z,97516.75
2023-03-24T19:51:34.171Z,97519.34
2023-03-24T19:55:01.264Z,97509.78
2023-03-24T19:58:24.828Z,97508.25
2023-03-24T20:01:50.628Z,97499.47
2023-03-24T20:05:14.982Z,97489.44
2023-03-24T20:08:39.120Z,97482.13
2023-03-24T20:12:01.201Z,97474.53
2023-03-24T20:15:28.983Z,97457.88
2023-03-24T20:18:53.934Z,97454.69
2023-03-24T20:22:16.823Z,97444.97
2023-03-24T20:25:43.580Z,97451.84
2023-03-24T20:29:09.539Z,97457.06
2023-03-24T20:32:31.443Z,97462.91
2023-03-24T20:35:56.304Z,97457.75
2023-03-24T20:39:20.406Z,97465.06
2023-03-24T20:42:51.135Z,97461.94
2023-03-24T20:46:17.642Z,97466.19
2023-03-24T20:49:40.571Z,97470.78
2023-03-24T20:53:02.429Z,97458.50
2023-03-24T20:56:24.933Z,97467.88
2023-03-24T20:59:48.433Z,97482.25
2023-03-24T21:03:18.199Z,97541.25
2023-03-24T21:06:40.295Z,97553.31
2023-03-24T21:10:06.963Z,97555.59
2023-03-24T21:13:37.372Z,97554.50
2023-03-24T21:17:00.024Z,97550.03
2023-03-24T21:20:22.318Z,97541.38
2023-03-24T21:23:44.234Z,97502.72
2023-03-24T21:27:12.017Z,97475.63
2023-03-24T21:30:36.747Z,97449.97
2023-03-24T21:34:00.732Z,97466.59
2023-03-24T21:37:25.420Z,97484.03
2023-03-24T21:40:47.225Z,97482.50
2023-03-24T21:44:10.426Z,97490.63
2023-03-24T21:47:34.427Z,97496.22
2023-03-24T21:50:57.359Z,97493.78
2023-03-24T21:54:33.256Z,97496.25
2023-03-24T21:57:55.362Z,97506.28
2023-03-24T22:01:17.320Z,97504.97
2023-03-24T22:04:41.599Z,97494.59
2023-03-24T22:08:08.925Z,97501.72
2023-03-24T22:11:42.412Z,97502.19
2023-03-24T22:15:05.370Z,97505.19
2023-03-24T22:18:31.709Z,97500.97
2023-03-24T22:22:00.322Z,97474.59
2023-03-24T22:25:24.251Z,97485.16
2023-03-24T22:28:46.184Z,97498.16
2023-03-24T22:32:15.468Z,97487.16
2023-03-24T22:35:42.233Z,97501.06
2023-03-24T22:39:04.139Z,97508.88
2023-03-24T22:42:25.957Z,97505.53
2023-03-24T22:45:50.021Z,97511.94
2023-03-24T22:49:11.950Z,97515.34
2023-03-24T22:52:33.933Z,97510.28
2023-03-24T22:55:57.067Z,97501.94
2023-03-24T22:59:19.114Z,97494.00
2023-03-24T23:02:41.082Z,97488.78
2023-03-24T23:06:03.821Z,97495.63
2023-03-24T23:09:26.586Z,97495.06
2023-03-24T23:12:51.780Z,97491.97
2023-03-24T23:16:13.650Z,97492.69
2023-03-24T23:19:47.877Z,97496.66
2023-03-24T23:23:10.868Z,97497.28
2023-03-24T23:26:32.872Z,97492.81
2023-03-24T23:29:54.800Z,97485.16
2023-03-24T23:33:16.769Z,97493.94
2023-03-24T23:36:49.710Z,97500.56
2023-03-24T23:40:14.952Z,97501.06
2023-03-24T23:43:37.267Z,97500.09
2023-03-24T23:47:00.129Z,97488.34
2023-03-24T23:50:21.958Z,97500.94
2023-03-24T23:53:43.768Z,97492.50
2023-03-24T23:57:05.669Z,97496.97
